Time;durP1;ratioP1;P1;durP2;ratioP2;P2;SDS_P1;SDS_P2;PMS_P1;PMS_P2;Temp;Humidity;BMP_temperature;BMP_pressure;BME280_temperature;BME280_humidity;BME280_pressure;Samples;Min_cycle;Max_cycle;Signal;HPM_P1;HPM_P2
2022/02/12 00:00:38;;;;;;;22.60;4.83;;;0.30;92.20;;;;;;5015908;28;20177;-87
2022/02/12 00:03:04;;;;;;;23.40;5.80;;;0.40;92.30;;;;;;5015738;28;20581;-86
2022/02/12 00:05:30;;;;;;;18.70;5.07;;;0.50;92.40;;;;;;5015764;28;20196;-87
2022/02/12 00:07:58;;;;;;;17.50;6.20;;;0.30;92.20;;;;;;5032614;28;20404;-87
2022/02/12 00:10:25;;;;;;;18.27;5.37;;;0.20;92.20;;;;;;5015721;28;20196;-86
2022/02/12 00:12:51;;;;;;;18.77;4.87;;;0.10;92.30;;;;;;5015684;28;20206;-87
2022/02/12 00:15:17;;;;;;;22.37;5.90;;;0.10;92.50;;;;;;5015839;28;20187;-86
2022/02/12 00:17:43;;;;;;;25.90;5.47;;;0.30;92.70;;;;;;5015095;28;20189;-86
2022/02/12 00:20:10;;;;;;;17.17;5.67;;;0.40;92.60;;;;;;5033501;28;20204;-86
2022/02/12 00:22:35;;;;;;;20.10;5.90;;;0.40;92.50;;;;;;5033143;28;20184;-86
2022/02/12 00:25:01;;;;;;;11.03;5.33;;;0.40;92.40;;;;;;5015341;28;20211;-85
2022/02/12 00:27:27;;;;;;;16.43;5.07;;;0.50;92.30;;;;;;5015740;28;20668;-85
2022/02/12 00:29:52;;;;;;;12.70;4.53;;;0.50;92.20;;;;;;5033245;28;20217;-85
2022/02/12 00:32:18;;;;;;;15.67;5.43;;;0.50;92.10;;;;;;5015633;28;20261;-85
2022/02/12 00:34:44;;;;;;;17.60;5.90;;;0.50;92.10;;;;;;5015335;28;20282;-86
2022/02/12 00:37:09;;;;;;;16.70;6.33;;;0.50;92.00;;;;;;5033195;28;20177;-87
2022/02/12 00:39:35;;;;;;;16.20;4.53;;;0.50;92.10;;;;;;5015404;28;20185;-86
2022/02/12 00:42:01;;;;;;;20.73;5.40;;;0.50;92.00;;;;;;5033154;28;20231;-86
2022/02/12 00:44:27;;;;;;;21.63;5.13;;;0.50;92.10;;;;;;5015366;28;20289;-86
2022/02/12 00:46:53;;;;;;;28.47;6.03;;;0.50;92.00;;;;;;5015436;28;20320;-86
2022/02/12 00:49:19;;;;;;;22.33;5.37;;;0.60;92.10;;;;;;5015533;28;20181;-86
2022/02/12 00:51:45;;;;;;;19.77;5.93;;;0.50;92.10;;;;;;5015420;28;20654;-86
2022/02/12 00:54:10;;;;;;;17.87;5.70;;;0.50;92.20;;;;;;5015358;28;20243;-87
2022/02/12 00:56:36;;;;;;;15.77;4.87;;;0.50;92.10;;;;;;5015418;28;20188;-85
2022/02/12 00:59:02;;;;;;;15.70;5.83;;;0.50;92.00;;;;;;5032986;28;20177;-86
2022/02/12 01:01:27;;;;;;;16.50;5.23;;;0.60;91.90;;;;;;5015378;28;20188;-86
2022/02/12 01:03:56;;;;;;;18.53;6.77;;;0.60;91.90;;;;;;5015159;28;20219;-85
2022/02/12 01:06:21;;;;;;;16.77;6.07;;;0.50;91.80;;;;;;5015103;28;20206;-86
2022/02/12 01:08:47;;;;;;;19.47;5.90;;;0.50;91.80;;;;;;5015186;28;20178;-86
2022/02/12 01:11:13;;;;;;;16.73;6.37;;;0.40;91.80;;;;;;5015499;28;20255;-86
2022/02/12 01:13:39;;;;;;;18.60;6.40;;;0.30;91.80;;;;;;5014966;28;20575;-86
2022/02/12 01:16:06;;;;;;;17.80;6.10;;;0.20;92.00;;;;;;5033213;28;20162;-86
2022/02/12 01:18:32;;;;;;;13.83;5.40;;;0.30;92.20;;;;;;5033175;28;20178;-86
2022/02/12 01:20:57;;;;;;;10.50;5.43;;;0.40;92.10;;;;;;5033073;28;20617;-86
2022/02/12 01:23:23;;;;;;;13.50;6.10;;;0.30;92.00;;;;;;5014936;28;20202;-86
2022/02/12 01:25:50;;;;;;;20.80;7.57;;;0.00;91.90;;;;;;5032615;28;20205;-86
2022/02/12 01:28:16;;;;;;;17.30;6.40;;;0.00;92.00;;;;;;5016452;28;20182;-86
2022/02/12 01:30:43;;;;;;;11.20;5.80;;;0.00;92.10;;;;;;5018717;28;20174;-86
2022/02/12 01:33:09;;;;;;;17.63;7.50;;;-0.10;92.30;;;;;;5036459;28;20196;-86
2022/02/12 01:35:35;;;;;;;14.70;6.50;;;-0.20;92.40;;;;;;5018653;28;20177;-86
2022/02/12 01:38:00;;;;;;;16.53;5.93;;;-0.20;92.50;;;;;;5018906;28;20185;-86
2022/02/12 01:40:27;;;;;;;17.47;6.43;;;-0.30;92.60;;;;;;5018655;28;20184;-86
2022/02/12 01:42:53;;;;;;;13.50;5.67;;;-0.30;92.80;;;;;;5018340;28;20259;-86
2022/02/12 01:45:19;;;;;;;15.83;6.13;;;-0.30;92.80;;;;;;5035962;28;20203;-86
2022/02/12 01:47:45;;;;;;;21.27;6.00;;;-0.30;92.90;;;;;;5035874;28;20177;-86
2022/02/12 01:50:12;;;;;;;15.90;5.70;;;-0.30;93.00;;;;;;5018250;28;20176;-86
2022/02/12 01:52:39;;;;;;;16.60;6.03;;;-0.20;93.00;;;;;;5035799;28;20702;-86
2022/02/12 01:55:06;;;;;;;19.50;6.07;;;-0.20;92.90;;;;;;5018122;28;20537;-85
2022/02/12 01:57:32;;;;;;;18.07;5.57;;;-0.10;93.00;;;;;;5018172;28;20174;-86
2022/02/12 01:59:57;;;;;;;29.03;9.17;;;-0.10;93.00;;;;;;5018708;28;20252;-84
2022/02/12 02:02:24;;;;;;;20.30;6.63;;;0.00;93.00;;;;;;5035887;28;20177;-86
2022/02/12 02:04:50;;;;;;;33.93;11.57;;;0.00;92.90;;;;;;5017893;28;20672;-85
2022/02/12 02:07:16;;;;;;;20.83;7.20;;;0.10;93.00;;;;;;5035745;28;20579;-86
2022/02/12 02:09:42;;;;;;;18.53;6.13;;;0.10;92.90;;;;;;5018273;28;20181;-86
2022/02/12 02:12:08;;;;;;;16.53;5.97;;;0.10;92.80;;;;;;5018025;28;20180;-85
2022/02/12 02:14:40;;;;;;;15.47;5.93;;;0.00;92.60;;;;;;5035852;28;20189;-86
2022/02/12 02:17:07;;;;;;;11.47;5.67;;;0.00;92.60;;;;;;5017881;28;20169;-86
2022/02/12 02:19:32;;;;;;;19.90;6.07;;;0.00;92.60;;;;;;5017755;28;20188;-86
2022/02/12 02:21:59;;;;;;;16.20;5.60;;;0.10;92.50;;;;;;5017864;28;20271;-87
2022/02/12 02:24:26;;;;;;;16.30;5.40;;;0.10;92.50;;;;;;5035318;28;20622;-87
2022/02/12 02:27:14;;;;;;;14.83;6.50;;;0.10;92.50;;;;;;5017570;28;20228;-86
2022/02/12 02:29:43;;;;;;;9.60;5.40;;;0.20;92.40;;;;;;5017587;28;20219;-87
2022/02/12 02:32:10;;;;;;;24.93;5.60;;;0.20;92.40;;;;;;5017737;28;20555;-87
2022/02/12 02:34:37;;;;;;;14.03;5.40;;;0.20;92.40;;;;;;5017537;28;20197;-86
2022/02/12 02:37:03;;;;;;;16.10;5.97;;;0.30;92.40;;;;;;5017572;28;20748;-87
2022/02/12 02:39:29;;;;;;;17.97;5.67;;;0.30;92.40;;;;;;5016819;28;20255;-87
2022/02/12 02:41:54;;;;;;;16.97;6.33;;;0.30;92.40;;;;;;5017324;28;20654;-87
2022/02/12 02:44:21;;;;;;;33.70;7.63;;;0.30;92.40;;;;;;5017187;28;20203;-87
2022/02/12 02:46:46;;;;;;;15.70;5.73;;;0.30;92.40;;;;;;5017141;28;20206;-87
2022/02/12 02:49:12;;;;;;;18.50;5.57;;;0.30;92.30;;;;;;5017238;28;20178;-88
2022/02/12 02:57:05;;;;;;;19.27;5.70;;;0.10;92.10;;;;;;5034983;28;20215;-87
2022/02/12 02:59:31;;;;;;;17.03;6.20;;;0.10;92.10;;;;;;5017029;28;20176;-86
2022/02/12 03:01:56;;;;;;;14.20;5.23;;;0.10;92.00;;;;;;5016988;28;20226;-86
2022/02/12 03:04:23;;;;;;;16.10;5.13;;;0.00;91.90;;;;;;5016900;28;20224;-86
2022/02/12 03:06:49;;;;;;;15.93;6.57;;;0.00;91.90;;;;;;5016986;28;20193;-86
2022/02/12 03:09:15;;;;;;;24.40;6.27;;;0.00;91.90;;;;;;5034486;28;20171;-86
2022/02/12 03:11:40;;;;;;;14.70;5.67;;;0.00;91.90;;;;;;5034452;28;20548;-86
2022/02/12 03:14:06;;;;;;;12.40;6.03;;;0.00;91.80;;;;;;5016574;28;20303;-86
2022/02/12 03:16:31;;;;;;;15.50;6.13;;;-0.10;91.80;;;;;;5016725;28;20614;-87
2022/02/12 03:18:57;;;;;;;15.40;6.10;;;-0.10;91.90;;;;;;5034277;28;20681;-86
2022/02/12 03:21:24;;;;;;;15.33;6.43;;;-0.20;91.80;;;;;;5016478;28;20184;-87
2022/02/12 03:23:50;;;;;;;18.17;6.60;;;-0.20;91.90;;;;;;5016541;28;20610;-86
2022/02/12 03:26:16;;;;;;;18.27;6.33;;;-0.20;91.90;;;;;;5016452;28;20756;-86
2022/02/12 03:28:43;;;;;;;16.10;6.20;;;-0.20;91.90;;;;;;5016585;28;20177;-86
2022/02/12 03:31:10;;;;;;;16.77;6.03;;;-0.20;91.90;;;;;;5016467;28;20223;-88
2022/02/12 03:33:36;;;;;;;18.87;7.17;;;-0.30;92.00;;;;;;5016200;28;20201;-86
2022/02/12 03:36:03;;;;;;;26.17;7.00;;;-0.30;92.10;;;;;;5034012;28;20176;-86
2022/02/12 03:38:31;;;;;;;15.50;6.57;;;-0.20;92.10;;;;;;5016468;28;20272;-86
2022/02/12 03:41:03;;;;;;;19.37;6.87;;;-0.20;92.10;;;;;;5033988;28;20188;-86
2022/02/12 03:43:34;;;;;;;14.77;6.97;;;-0.30;92.00;;;;;;5033839;28;20291;-87
2022/02/12 03:46:01;;;;;;;23.63;7.33;;;-0.30;92.00;;;;;;5016309;28;20636;-86
2022/02/12 03:48:27;;;;;;;18.87;7.47;;;-0.30;92.10;;;;;;5016043;28;20179;-86
2022/02/12 03:50:53;;;;;;;13.77;6.53;;;-0.30;92.20;;;;;;5033333;28;20184;-86
2022/02/12 03:53:20;;;;;;;21.90;6.87;;;-0.20;92.20;;;;;;5015633;28;20193;-86
2022/02/12 03:55:46;;;;;;;16.27;6.70;;;-0.20;92.30;;;;;;5015943;28;20180;-86
2022/02/12 03:58:14;;;;;;;19.13;6.23;;;-0.20;92.30;;;;;;5015911;28;20187;-86
2022/02/12 04:00:42;;;;;;;15.70;6.80;;;-0.10;92.40;;;;;;5033679;28;20197;-87
2022/02/12 04:03:08;;;;;;;19.57;6.37;;;-0.10;92.40;;;;;;5033466;28;20216;-87
2022/02/12 04:05:34;;;;;;;14.37;6.20;;;-0.10;92.30;;;;;;5015700;28;20227;-86
2022/02/12 04:08:00;;;;;;;14.80;6.17;;;-0.10;92.30;;;;;;5033455;28;20169;-86
2022/02/12 04:10:27;;;;;;;15.67;6.53;;;-0.10;92.20;;;;;;5015839;28;20186;-86
2022/02/12 04:12:53;;;;;;;11.40;7.37;;;-0.10;92.10;;;;;;5015924;28;20295;-86
2022/02/12 04:15:19;;;;;;;17.33;6.57;;;-0.10;92.00;;;;;;5015729;28;20211;-86
2022/02/12 04:17:45;;;;;;;17.37;6.60;;;-0.20;91.90;;;;;;5033220;28;20184;-86
2022/02/12 04:20:18;;;;;;;11.87;6.50;;;-0.20;91.90;;;;;;5015693;28;20211;-86
2022/02/12 04:22:44;;;;;;;19.97;6.60;;;-0.20;91.80;;;;;;5015832;28;20196;-86
2022/02/12 04:25:15;;;;;;;23.83;7.53;;;-0.20;91.70;;;;;;5033242;28;20181;-86
2022/02/12 04:27:41;;;;;;;23.13;7.10;;;-0.30;91.70;;;;;;5015648;28;20179;-87
2022/02/12 04:30:08;;;;;;;24.37;7.33;;;-0.40;91.60;;;;;;5015884;28;20240;-86
2022/02/12 04:32:35;;;;;;;15.20;6.20;;;-0.30;91.70;;;;;;5033049;28;20208;-87
2022/02/12 04:35:02;;;;;;;14.40;6.60;;;-0.30;91.60;;;;;;5033154;28;20176;-86
2022/02/12 04:37:28;;;;;;;22.03;6.57;;;-0.40;91.50;;;;;;5033284;28;20187;-86
2022/02/12 04:39:54;;;;;;;19.70;6.53;;;-0.40;91.50;;;;;;5015468;28;20216;-86
2022/02/12 04:42:19;;;;;;;22.17;6.30;;;-0.40;91.40;;;;;;5015759;28;20173;-86
2022/02/12 04:44:48;;;;;;;16.53;6.97;;;-0.40;91.40;;;;;;5015750;28;20199;-86
2022/02/12 04:47:14;;;;;;;21.27;6.83;;;-0.40;91.20;;;;;;5033310;28;20209;-86
2022/02/12 04:49:39;;;;;;;12.73;6.67;;;-0.40;91.20;;;;;;5015474;28;20183;-87
2022/02/12 04:52:06;;;;;;;15.37;7.53;;;-0.50;91.10;;;;;;5015556;28;20622;-86
2022/02/12 04:54:32;;;;;;;12.63;6.93;;;-0.50;91.10;;;;;;5015545;28;20283;-86
2022/02/12 04:56:59;;;;;;;13.90;7.03;;;-0.50;91.10;;;;;;5015424;28;20665;-87
2022/02/12 04:59:24;;;;;;;16.87;7.23;;;-0.50;91.20;;;;;;5032950;28;20185;-86
2022/02/12 05:01:50;;;;;;;15.60;7.07;;;-0.60;91.10;;;;;;5015249;28;20195;-86
2022/02/12 05:04:17;;;;;;;14.93;6.43;;;-0.60;91.00;;;;;;5040855;23;20641;-87
2022/02/12 05:06:43;;;;;;;16.83;7.33;;;-0.60;91.10;;;;;;5036679;28;20199;-88
2022/02/12 05:09:11;;;;;;;17.10;6.53;;;-0.60;90.90;;;;;;5036826;28;20165;-88
2022/02/12 05:11:40;;;;;;;19.40;6.87;;;-0.60;90.90;;;;;;5019106;28;20177;-88
2022/02/12 05:14:05;;;;;;;15.10;7.27;;;-0.60;90.90;;;;;;5018946;28;20698;-88
2022/02/12 05:16:31;;;;;;;13.70;7.13;;;-0.60;90.90;;;;;;5036590;28;20182;-88
2022/02/12 05:18:56;;;;;;;17.57;8.47;;;-0.60;90.90;;;;;;5020090;28;20268;-88
2022/02/12 05:21:22;;;;;;;14.80;7.17;;;-0.60;90.90;;;;;;5018770;28;20223;-87
2022/02/12 05:23:48;;;;;;;20.43;7.23;;;-0.60;90.90;;;;;;5036649;28;20189;-87
2022/02/12 05:26:13;;;;;;;17.77;7.63;;;-0.60;90.80;;;;;;5018633;28;20233;-87
2022/02/12 05:28:39;;;;;;;18.87;8.17;;;-0.70;90.90;;;;;;5018722;28;20180;-87
2022/02/12 05:31:05;;;;;;;16.00;8.67;;;-0.60;91.00;;;;;;5036398;28;20181;-88
2022/02/12 05:33:30;;;;;;;19.63;8.40;;;-0.60;91.10;;;;;;5036155;28;20173;-87
2022/02/12 05:35:56;;;;;;;18.07;8.43;;;-0.60;91.20;;;;;;5036484;28;20180;-87
2022/02/12 05:38:21;;;;;;;23.67;8.27;;;-0.60;91.10;;;;;;5018791;28;20173;-87
2022/02/12 05:40:47;;;;;;;21.50;8.03;;;-0.70;91.10;;;;;;5018322;28;20189;-87
2022/02/12 05:43:12;;;;;;;21.77;8.97;;;-0.70;91.20;;;;;;5036032;28;20227;-87
2022/02/12 05:45:41;;;;;;;16.77;7.90;;;-0.70;91.10;;;;;;5018526;28;20628;-87
2022/02/12 05:48:07;;;;;;;16.83;8.70;;;-0.70;91.10;;;;;;5018556;28;20267;-87
2022/02/12 05:50:33;;;;;;;18.43;8.23;;;-0.80;91.10;;;;;;5035947;28;20210;-87
2022/02/12 05:52:58;;;;;;;13.10;9.07;;;-0.90;91.10;;;;;;5018393;28;20180;-87
2022/02/12 05:55:25;;;;;;;15.80;9.43;;;-0.90;91.10;;;;;;5035763;28;20632;-87
2022/02/12 05:57:58;;;;;;;29.63;8.87;;;-1.00;91.20;;;;;;5018013;28;20185;-87
2022/02/12 06:00:25;;;;;;;21.77;9.87;;;-0.90;91.30;;;;;;5018000;28;20211;-87
2022/02/12 06:02:50;;;;;;;21.03;9.53;;;-0.90;91.30;;;;;;5035727;28;20180;-87
2022/02/12 06:05:16;;;;;;;17.57;9.50;;;-0.90;91.30;;;;;;5017770;28;20223;-87
2022/02/12 06:07:42;;;;;;;25.53;9.90;;;-1.00;91.30;;;;;;5017891;28;20266;-87
2022/02/12 06:10:07;;;;;;;17.40;10.07;;;-1.00;91.30;;;;;;5035877;28;20251;-87
2022/02/12 06:12:33;;;;;;;21.80;9.03;;;-1.00;91.40;;;;;;5017824;28;20312;-87
2022/02/12 06:14:59;;;;;;;14.77;8.97;;;-1.00;91.40;;;;;;5016902;28;20220;-87
2022/02/12 06:17:24;;;;;;;23.10;10.87;;;-1.00;91.50;;;;;;5017763;28;20177;-87
2022/02/12 06:19:50;;;;;;;18.33;9.20;;;-1.00;91.40;;;;;;5017716;28;20234;-87
2022/02/12 06:22:15;;;;;;;27.30;11.10;;;-1.10;91.30;;;;;;5017579;28;20219;-87
2022/02/12 06:24:41;;;;;;;18.27;10.13;;;-1.10;91.30;;;;;;5017597;28;20236;-87
2022/02/12 06:27:06;;;;;;;16.07;9.80;;;-1.10;91.30;;;;;;5018305;28;20204;-87
2022/02/12 06:29:32;;;;;;;23.33;9.27;;;-1.10;91.30;;;;;;5017503;28;20207;-87
2022/02/12 06:31:58;;;;;;;16.33;9.70;;;-1.10;91.40;;;;;;5035251;28;20180;-87
2022/02/12 06:34:24;;;;;;;23.63;9.87;;;-1.10;91.40;;;;;;5017473;28;20288;-87
2022/02/12 06:36:50;;;;;;;16.50;9.67;;;-1.00;91.50;;;;;;5017427;28;20284;-87
2022/02/12 06:39:15;;;;;;;24.83;9.93;;;-1.00;91.50;;;;;;5035107;28;20638;-86
2022/02/12 06:41:41;;;;;;;23.70;8.73;;;-0.90;91.60;;;;;;5017280;28;20182;-86
2022/02/12 06:44:08;;;;;;;16.97;8.87;;;-0.90;91.60;;;;;;5034864;28;20208;-87
2022/02/12 06:46:33;;;;;;;22.50;9.17;;;-0.80;91.80;;;;;;5017124;28;20684;-86
2022/02/12 06:48:59;;;;;;;13.90;7.43;;;-0.70;91.70;;;;;;5034872;28;20183;-86
2022/02/12 06:51:24;;;;;;;14.27;7.20;;;-0.70;91.60;;;;;;5017091;28;20267;-87
2022/02/12 06:53:50;;;;;;;20.30;7.77;;;-0.70;91.60;;;;;;5016978;28;20248;-86
2022/02/12 06:56:15;;;;;;;14.83;7.70;;;-0.60;91.60;;;;;;5034940;28;20705;-86
2022/02/12 06:58:41;;;;;;;15.20;7.00;;;-0.60;91.50;;;;;;5016842;28;20235;-86
2022/02/12 07:01:06;;;;;;;27.03;8.17;;;-0.60;91.50;;;;;;5016812;28;20184;-86
2022/02/12 07:03:32;;;;;;;12.33;7.23;;;-0.60;91.50;;;;;;5034312;28;20216;-86
2022/02/12 07:05:57;;;;;;;25.47;7.93;;;-0.60;91.40;;;;;;5016736;28;20207;-86
2022/02/12 07:08:23;;;;;;;22.67;7.27;;;-0.70;91.40;;;;;;5034590;28;20184;-86
2022/02/12 07:10:49;;;;;;;18.17;7.73;;;-0.70;91.40;;;;;;5017008;28;20188;-86
2022/02/12 07:13:14;;;;;;;20.07;7.13;;;-0.70;91.40;;;;;;5034391;28;20177;-86
2022/02/12 07:15:40;;;;;;;22.73;8.23;;;-0.60;91.50;;;;;;5034365;28;20566;-87
2022/02/12 07:18:06;;;;;;;17.57;7.37;;;-0.60;91.50;;;;;;5016593;28;20241;-86
2022/02/12 07:20:32;;;;;;;15.37;6.83;;;-0.70;91.50;;;;;;5016590;28;20174;-86
2022/02/12 07:22:58;;;;;;;20.47;6.60;;;-0.60;91.60;;;;;;5016530;28;20226;-86
2022/02/12 07:25:23;;;;;;;17.30;6.93;;;-0.60;91.50;;;;;;5016003;28;20199;-86
2022/02/12 07:27:57;;;;;;;14.50;6.90;;;-0.60;91.50;;;;;;5016345;28;20179;-86
2022/02/12 07:30:23;;;;;;;18.03;7.13;;;-0.60;91.50;;;;;;5016440;28;20171;-86
2022/02/12 07:32:49;;;;;;;12.67;7.23;;;-0.50;91.60;;;;;;5016208;28;20188;-86
2022/02/12 07:35:16;;;;;;;16.90;7.10;;;-0.50;91.50;;;;;;5016232;28;20200;-86
2022/02/12 07:37:44;;;;;;;14.17;6.27;;;-0.40;91.50;;;;;;5016228;28;20234;-86
2022/02/12 07:40:10;;;;;;;18.10;6.27;;;-0.40;91.30;;;;;;5034018;28;20223;-86
2022/02/12 07:42:37;;;;;;;17.50;6.63;;;-0.40;91.30;;;;;;5033716;28;20175;-86
2022/02/12 07:45:03;;;;;;;17.17;6.73;;;-0.30;91.20;;;;;;5016114;28;20288;-86
2022/02/12 07:47:29;;;;;;;15.07;6.43;;;-0.30;91.20;;;;;;5033523;28;20204;-86
2022/02/12 07:49:54;;;;;;;17.90;6.60;;;-0.30;91.20;;;;;;5015952;28;20548;-86
2022/02/12 07:52:20;;;;;;;17.93;7.43;;;-0.30;91.20;;;;;;5033639;28;20180;-86
2022/02/12 07:54:45;;;;;;;11.20;6.10;;;-0.20;91.20;;;;;;5033839;28;20280;-86
2022/02/12 07:57:11;;;;;;;15.43;6.70;;;-0.20;91.20;;;;;;5015889;28;20181;-86
2022/02/12 07:59:37;;;;;;;15.50;7.07;;;-0.10;91.10;;;;;;5015860;28;20215;-86
2022/02/12 08:02:03;;;;;;;18.53;6.13;;;-0.10;91.10;;;;;;5015927;28;20216;-86
2022/02/12 08:04:29;;;;;;;19.93;6.70;;;-0.10;91.00;;;;;;5016297;28;20307;-86
2022/02/12 08:09:39;;;;;;;20.60;5.93;;;0.00;90.80;;;;;;5034222;28;20207;-86
2022/02/12 08:12:14;;;;;;;12.53;5.83;;;0.10;90.40;;;;;;5033567;28;20638;-86
2022/02/12 08:14:45;;;;;;;14.47;6.63;;;0.10;90.30;;;;;;5015631;28;20353;-86
2022/02/12 08:17:10;;;;;;;18.00;6.90;;;0.20;90.10;;;;;;5015705;28;20180;-86
2022/02/12 08:19:37;;;;;;;27.90;7.20;;;0.30;90.00;;;;;;5015727;28;20174;-86
2022/02/12 08:22:07;;;;;;;10.80;5.80;;;0.30;89.90;;;;;;5033345;28;20182;-86
2022/02/12 08:24:33;;;;;;;15.37;5.47;;;0.30;90.00;;;;;;5015536;28;20250;-87
2022/02/12 08:26:59;;;;;;;18.43;5.70;;;0.30;90.00;;;;;;5015451;28;20745;-86
2022/02/12 08:29:28;;;;;;;16.33;6.00;;;0.30;89.90;;;;;;5033171;28;20173;-87
2022/02/12 08:31:55;;;;;;;12.60;5.93;;;0.50;90.00;;;;;;5015664;28;20169;-87
2022/02/12 08:34:21;;;;;;;17.80;6.17;;;0.60;89.70;;;;;;5033139;28;20557;-87
2022/02/12 08:36:47;;;;;;;19.13;6.40;;;0.60;89.60;;;;;;5015486;28;20179;-87
2022/02/12 08:39:13;;;;;;;15.00;6.77;;;0.50;89.60;;;;;;5018908;28;20181;-87
2022/02/12 08:41:38;;;;;;;15.87;6.47;;;0.50;89.70;;;;;;5019691;28;20179;-87
2022/02/12 08:44:04;;;;;;;15.87;6.07;;;0.60;89.70;;;;;;5019336;28;20244;-87
2022/02/12 08:46:30;;;;;;;15.80;7.23;;;0.60;89.60;;;;;;5019420;28;20213;-87
2022/02/12 08:48:55;;;;;;;21.70;6.13;;;0.60;89.60;;;;;;5020205;28;20177;-87
2022/02/12 08:51:21;;;;;;;10.00;5.30;;;0.70;89.30;;;;;;5019366;28;20179;-87
2022/02/12 08:53:46;;;;;;;4.97;3.40;;;0.80;88.80;;;;;;5019305;28;20197;-87
2022/02/12 08:56:13;;;;;;;7.23;3.93;;;0.90;87.90;;;;;;5019749;28;20203;-87
2022/02/12 08:58:39;;;;;;;9.23;3.97;;;1.00;87.20;;;;;;5036873;28;20262;-87
2022/02/12 09:01:05;;;;;;;6.97;3.63;;;1.10;86.60;;;;;;5036792;28;20170;-87
2022/02/12 09:03:31;;;;;;;5.27;3.37;;;1.20;86.70;;;;;;5036602;28;20173;-87
2022/02/12 09:05:58;;;;;;;4.93;3.00;;;1.30;85.50;;;;;;5019064;28;20667;-87
2022/02/12 09:08:24;;;;;;;4.50;3.40;;;1.40;84.60;;;;;;5019060;28;20178;-87
2022/02/12 09:10:50;;;;;;;12.00;3.97;;;1.50;84.20;;;;;;5036568;28;20175;-87
2022/02/12 09:13:16;;;;;;;16.00;3.40;;;1.60;84.70;;;;;;5036719;28;20183;-87
2022/02/12 09:15:41;;;;;;;4.73;3.57;;;1.60;84.00;;;;;;5036524;28;20243;-87
2022/02/12 09:18:07;;;;;;;10.07;4.00;;;1.60;84.10;;;;;;5019087;28;20271;-87
2022/02/12 09:20:32;;;;;;;17.77;5.43;;;1.60;83.70;;;;;;5019070;28;20176;-87
2022/02/12 09:22:58;;;;;;;14.23;4.47;;;1.60;82.90;;;;;;5019088;28;20654;-87
2022/02/12 09:25:23;;;;;;;8.37;3.77;;;1.60;83.60;;;;;;5036368;28;20676;-87
2022/02/12 09:27:49;;;;;;;14.20;4.40;;;1.60;83.20;;;;;;5018673;28;20711;-87
2022/02/12 09:30:15;;;;;;;2.70;2.50;;;1.60;82.70;;;;;;5018661;28;20220;-87
2022/02/12 09:32:40;;;;;;;12.03;4.50;;;1.70;83.40;;;;;;5036273;28;20232;-87
2022/02/12 09:35:06;;;;;;;14.70;4.00;;;1.80;83.20;;;;;;5018612;28;20684;-88
2022/02/12 09:37:32;;;;;;;9.03;3.97;;;1.80;83.00;;;;;;5018429;28;20205;-87
2022/02/12 09:39:57;;;;;;;8.47;3.27;;;1.90;82.50;;;;;;5018528;28;20274;-87
2022/02/12 09:42:23;;;;;;;8.63;4.00;;;2.00;83.20;;;;;;5036233;28;20206;-87
2022/02/12 09:44:48;;;;;;;8.43;4.40;;;2.10;82.40;;;;;;5018352;28;20203;-87
2022/02/12 09:47:22;;;;;;;10.40;4.63;;;2.20;82.00;;;;;;5036028;28;20179;-87
2022/02/12 09:49:49;;;;;;;14.10;4.23;;;2.20;81.60;;;;;;5018137;28;20176;-88
2022/02/12 09:52:17;;;;;;;11.37;4.73;;;2.30;81.20;;;;;;5035928;28;20180;-87
2022/02/12 09:54:46;;;;;;;13.77;5.63;;;2.40;80.90;;;;;;5018170;28;20204;-88
2022/02/12 09:57:12;;;;;;;4.03;3.43;;;2.50;80.60;;;;;;5035777;28;20240;-87
2022/02/12 09:59:38;;;;;;;11.07;4.50;;;2.50;80.70;;;;;;5018081;28;20187;-87
2022/02/12 10:02:03;;;;;;;8.27;3.60;;;2.50;79.40;;;;;;5018054;28;20177;-87
2022/02/12 10:04:31;;;;;;;16.63;5.43;;;2.50;79.10;;;;;;5017893;28;20768;-88
2022/02/12 10:06:58;;;;;;;17.73;5.50;;;2.60;79.90;;;;;;5017878;28;20323;-88
2022/02/12 10:09:23;;;;;;;14.17;4.60;;;2.70;78.80;;;;;;5017913;28;20644;-88
2022/02/12 10:11:54;;;;;;;2.60;2.40;;;2.80;78.60;;;;;;5018112;28;20253;-88
2022/02/12 10:14:25;;;;;;;10.53;4.23;;;2.80;78.20;;;;;;5017879;28;20204;-87
2022/02/12 10:17:02;;;;;;;8.57;3.43;;;2.90;77.80;;;;;;5017727;28;20200;-88
2022/02/12 10:19:38;;;;;;;15.50;3.40;;;3.00;77.50;;;;;;5035635;28;20159;-88
2022/02/12 10:22:13;;;;;;;7.47;3.43;;;3.10;77.60;;;;;;5017880;28;20163;-88
2022/02/12 10:24:58;;;;;;;8.57;3.93;;;3.10;77.30;;;;;;5017666;28;20283;-88
2022/02/12 10:27:26;;;;;;;6.90;4.40;;;3.20;76.80;;;;;;5017685;28;20176;-88
2022/02/12 10:29:53;;;;;;;6.30;3.83;;;3.30;76.00;;;;;;5035547;28;20215;-88
2022/02/12 10:32:23;;;;;;;11.00;3.33;;;3.30;75.20;;;;;;5017570;28;20230;-88
2022/02/12 10:34:50;;;;;;;8.27;3.00;;;3.40;75.30;;;;;;5035192;28;20199;-88
2022/02/12 10:37:18;;;;;;;14.83;4.57;;;3.50;75.50;;;;;;5035228;28;20735;-88
2022/02/12 10:39:58;;;;;;;10.10;4.63;;;3.60;75.50;;;;;;5017611;28;20180;-88
2022/02/12 10:42:31;;;;;;;10.33;4.30;;;3.60;75.60;;;;;;5035030;28;20161;-88
2022/02/12 10:44:56;;;;;;;4.20;2.60;;;3.80;75.60;;;;;;5034875;28;20196;-88
2022/02/12 10:47:23;;;;;;;7.87;3.40;;;3.70;73.00;;;;;;5017297;28;20176;-88
2022/02/12 10:49:50;;;;;;;7.53;4.30;;;3.80;72.70;;;;;;5017118;28;20250;-88
2022/02/12 10:52:16;;;;;;;5.73;3.03;;;3.90;72.80;;;;;;5017367;28;20191;-88
2022/02/12 10:54:50;;;;;;;8.63;3.73;;;3.90;73.30;;;;;;5017009;28;20229;-88
2022/02/12 10:57:17;;;;;;;9.63;3.77;;;4.00;72.10;;;;;;5017045;28;20327;-88
2022/02/12 10:59:44;;;;;;;9.30;3.13;;;4.00;71.90;;;;;;5017018;28;20677;-88
2022/02/12 11:02:15;;;;;;;15.00;4.23;;;4.10;71.60;;;;;;5034055;28;20177;-88
2022/02/12 11:04:42;;;;;;;12.50;4.40;;;4.10;71.70;;;;;;5016822;28;20580;-88
2022/02/12 11:07:13;;;;;;;7.23;3.33;;;4.20;71.20;;;;;;5034715;28;20188;-88
2022/02/12 11:09:39;;;;;;;8.83;3.07;;;4.30;72.90;;;;;;5034448;28;20226;-88
2022/02/12 11:12:06;;;;;;;11.90;3.33;;;4.40;72.50;;;;;;5034444;28;20180;-88
2022/02/12 11:14:33;;;;;;;10.13;3.03;;;4.30;71.30;;;;;;5016644;28;20207;-88
2022/02/12 11:17:13;;;;;;;10.27;4.33;;;4.30;69.70;;;;;;5016815;28;20346;-88
2022/02/12 11:19:40;;;;;;;5.87;3.10;;;4.40;71.30;;;;;;5034292;28;20169;-88
2022/02/12 11:22:09;;;;;;;13.67;4.70;;;4.50;70.70;;;;;;5034264;28;20546;-88
2022/02/12 11:24:44;;;;;;;6.90;3.67;;;4.60;70.10;;;;;;5016774;28;20215;-88
2022/02/12 11:27:29;;;;;;;9.00;4.40;;;4.70;69.70;;;;;;5016711;28;20181;-88
2022/02/12 11:29:56;;;;;;;14.70;3.70;;;4.80;70.10;;;;;;5016546;28;20541;-88
2022/02/12 11:32:26;;;;;;;7.57;3.10;;;4.80;68.30;;;;;;5016442;28;20181;-88
2022/02/12 11:35:10;;;;;;;4.10;3.00;;;4.90;68.10;;;;;;5034012;28;20295;-88
2022/02/12 11:37:40;;;;;;;5.27;3.63;;;4.90;69.30;;;;;;5016312;28;20194;-88
2022/02/12 11:40:12;;;;;;;9.90;3.80;;;4.90;68.20;;;;;;5016393;28;20165;-88
2022/02/12 11:42:45;;;;;;;15.20;4.50;;;5.00;67.40;;;;;;5034008;28;20255;-88
2022/02/12 11:45:35;;;;;;;11.33;3.47;;;5.00;66.50;;;;;;5016119;28;20208;-89
2022/02/12 11:48:38;;;;;;;8.03;3.67;;;5.10;66.60;;;;;;5019393;28;20198;-88
2022/02/12 11:51:11;;;;;;;11.83;3.83;;;5.00;68.10;;;;;;5016953;28;20169;-88
2022/02/12 11:53:44;;;;;;;10.47;2.93;;;5.00;68.30;;;;;;5016350;28;20676;-88
2022/02/12 11:56:15;;;;;;;9.10;3.50;;;5.00;65.70;;;;;;5015942;28;20338;-88
2022/02/12 11:58:41;;;;;;;2.37;2.10;;;5.20;66.70;;;;;;5033906;28;20177;-89
2022/02/12 12:01:29;;;;;;;7.90;3.20;;;5.30;66.60;;;;;;5015945;28;20189;-88
2022/02/12 12:04:18;;;;;;;6.53;3.03;;;5.30;65.80;;;;;;5015778;28;20207;-88
2022/02/12 12:06:58;;;;;;;8.07;3.30;;;5.30;66.30;;;;;;5033904;28;20622;-88
2022/02/12 12:09:25;;;;;;;11.47;3.60;;;5.20;65.60;;;;;;5016539;28;20189;-88
2022/02/12 12:12:12;;;;;;;7.27;2.43;;;5.30;67.00;;;;;;5033280;28;20175;-88
2022/02/12 12:14:39;;;;;;;6.90;2.93;;;5.10;64.80;;;;;;5033454;28;20683;-88
2022/02/12 12:17:05;;;;;;;10.53;3.60;;;5.30;65.90;;;;;;5015723;28;20209;-88
2022/02/12 12:19:35;;;;;;;9.50;3.13;;;5.40;65.20;;;;;;5015735;28;20178;-88
2022/02/12 12:22:03;;;;;;;7.77;3.10;;;5.40;65.80;;;;;;5033631;28;20171;-88
2022/02/12 12:24:29;;;;;;;10.10;2.93;;;5.40;64.50;;;;;;5015514;28;20197;-89
2022/02/12 12:26:54;;;;;;;6.53;3.20;;;5.30;64.60;;;;;;5015642;28;20207;-89
2022/02/12 12:32:13;;;;;;;15.40;5.47;;;5.10;64.80;;;;;;5033774;28;20171;-89
2022/02/12 12:34:51;;;;;;;10.30;4.57;;;5.30;65.50;;;;;;5015550;28;20231;-89
2022/02/12 12:37:17;;;;;;;17.37;4.77;;;5.20;66.90;;;;;;5015718;28;20202;-88
2022/02/12 12:39:44;;;;;;;15.77;4.10;;;5.30;67.00;;;;;;5015766;28;20211;-90
2022/02/12 12:42:29;;;;;;;7.27;3.77;;;5.20;66.10;;;;;;5016429;28;20317;-90
2022/02/12 12:44:58;;;;;;;5.20;2.87;;;5.20;65.70;;;;;;5015563;28;20189;-89
2022/02/12 12:47:25;;;;;;;8.13;3.70;;;5.20;66.40;;;;;;5034042;28;20166;-90
2022/02/12 12:49:54;;;;;;;11.80;4.10;;;5.20;66.30;;;;;;5016337;28;20686;-89
2022/02/12 12:52:23;;;;;;;11.30;2.97;;;5.20;64.80;;;;;;5018060;28;20181;-88
2022/02/12 12:54:54;;;;;;;7.83;3.40;;;5.30;64.80;;;;;;5015238;28;20610;-87